Accueil
METAR-TAF:

METAR-TAF

Aéroports :

Cabo San Lucas, Mexique

latitude: 22-56-51N, longitude: 109-56-13W, altitude: 210 m

Observation

Le bulletin a été fait il y a 1 heure et 34 minutes, à 20:40 UTC
Vent 5 kt de ouest/sud-ouest
Température 34°C
Humidité 25%
Pression 1006 hPa
Visibilité: 16.1 km
Ciel clair

METAR: MMSL 172040Z 24005KT 10SM SKC 34/11 A2970

Heure: 15:14 (22:14 UTC)

Prévision

Le bulletin a été fait il y a 5 heures et 22 minutes, à 16:52 UTC
Prévision valable du 17 à 18 UTC au 18 à 18 UTC
Vent 15 kt de ouest/sud-ouest
Visibilité: 10 km
Ciel clair
A partir de 18 à 0300 UTC
Vent 8 kt de ouest/sud-ouest
Visibilité: 10 km
Ciel clair
A partir de 18 à 1200 UTC
Vent 10 kt de nord-ouest
Visibilité: 10 km
Ciel clair

TAF: MMSL 171652Z 1718/1818 24015KT P6SM SKC FM180300 24008KT P6SM SKC FM181200 32010KT P6SM SKC

Observations et prévisions météorologiques de plus de 4000 aéroports (messages METAR et TAF).

Les stations disponibles sont représentées par des disques jaunes et rouges sur la carte.

Passer la souris dessus pour voir le nom de la station.

Cliquer dessus pour voir les observations et prévisions météorologiques.

Pour changer de carte: cliquez sur les boutons verts avec une croix noire pour zoomer, sur le bouton vert avec un tiret pour effectuer un zoom arrière, ou sur les flèches vertes pour les cartes adjacentes.


METAR-TAF: